KGJT/GJT METAR and TAF weather

Enter ICAO airport designator
Station Type Date Time Source
KGJT METAR 2021/05/17 21:53 UTC NOAA

KGJT 172153Z 07027G36KT 10SM CLR 19/02 A2991 RMK AO2 PK WND 06039/2056 SLP076 T01890017


Station Type Date Time Source
KGJT Decoded METAR 2021/05/17 21:53 UTC NOAA

GRAND JUNCTION WALKER FIELD, CO, United States (KGJT) 39-08N 108-32W 1452M
May 17, 2021 - 05:53 PM EDT / 2021.05.17 2153 UTC
Wind: from the ENE (070 degrees) at 31 MPH (27 KT) gusting to 41 MPH (36 KT):0
Visibility: 10 mile(s):0
Sky conditions: clear
Temperature: 66.0 F (18.9 C)
Dew Point: 35.1 F (1.7 C)
Relative Humidity: 31%
Pressure (altimeter): 29.91 in. Hg (1012 hPa)
ob: KGJT 172153Z 07027G36KT 10SM CLR 19/02 A2991 RMK AO2 PK WND 06039/2056 SLP076 T01890017
cycle: 22

Station Type Date Time Source
KGJT TAF 2021/05/17 18:42 UTC NOAA

TAF KGJT 171740Z 1718/1818 10008KT P6SM BKN100
FM171900 26010KT P6SM SCT120 BKN150
FM180000 16009KT P6SM SCT090 OVC150
FM180600 09005KT P6SM OVC100
FM181200 VRB04KT P6SM BKN100

Example: see airport list